sensor_id;sensor_type;location;lat;lon;timestamp;P1;durP1;ratioP1;P2;durP2;ratioP2
38457;SDS011;24239;48.058;10.486;2022-08-21T00:00:14;2.05;;;1.45;;
38457;SDS011;24239;48.058;10.486;2022-08-21T00:02:53;2.00;;;1.80;;
38457;SDS011;24239;48.058;10.486;2022-08-21T00:05:23;2.17;;;1.58;;
38457;SDS011;24239;48.058;10.486;2022-08-21T00:07:51;3.47;;;1.88;;
38457;SDS011;24239;48.058;10.486;2022-08-21T00:10:17;1.67;;;1.58;;
38457;SDS011;24239;48.058;10.486;2022-08-21T00:12:44;4.15;;;1.60;;
38457;SDS011;24239;48.058;10.486;2022-08-21T00:15:11;5.28;;;1.60;;
38457;SDS011;24239;48.058;10.486;2022-08-21T00:17:41;2.03;;;1.83;;
38457;SDS011;24239;48.058;10.486;2022-08-21T00:20:07;1.83;;;1.70;;
38457;SDS011;24239;48.058;10.486;2022-08-21T00:22:35;1.67;;;1.58;;
38457;SDS011;24239;48.058;10.486;2022-08-21T00:25:03;3.17;;;1.80;;
38457;SDS011;24239;48.058;10.486;2022-08-21T00:27:31;4.07;;;1.90;;
38457;SDS011;24239;48.058;10.486;2022-08-21T00:29:56;3.30;;;1.88;;
38457;SDS011;24239;48.058;10.486;2022-08-21T00:32:23;2.15;;;1.90;;
38457;SDS011;24239;48.058;10.486;2022-08-21T00:34:50;1.85;;;1.75;;
38457;SDS011;24239;48.058;10.486;2022-08-21T00:37:16;4.68;;;2.00;;
38457;SDS011;24239;48.058;10.486;2022-08-21T00:39:42;3.50;;;2.13;;
38457;SDS011;24239;48.058;10.486;2022-08-21T00:42:09;2.65;;;2.05;;
38457;SDS011;24239;48.058;10.486;2022-08-21T00:44:39;2.00;;;1.90;;
38457;SDS011;24239;48.058;10.486;2022-08-21T00:47:10;3.58;;;1.83;;
38457;SDS011;24239;48.058;10.486;2022-08-21T00:49:36;2.67;;;2.20;;
38457;SDS011;24239;48.058;10.486;2022-08-21T00:52:03;1.77;;;1.67;;
38457;SDS011;24239;48.058;10.486;2022-08-21T00:54:34;2.43;;;2.23;;
38457;SDS011;24239;48.058;10.486;2022-08-21T00:57:03;3.55;;;2.13;;
38457;SDS011;24239;48.058;10.486;2022-08-21T00:59:35;2.88;;;2.60;;
38457;SDS011;24239;48.058;10.486;2022-08-21T01:02:03;3.00;;;1.80;;
38457;SDS011;24239;48.058;10.486;2022-08-21T01:04:32;2.67;;;2.20;;
38457;SDS011;24239;48.058;10.486;2022-08-21T01:06:58;2.47;;;2.20;;
38457;SDS011;24239;48.058;10.486;2022-08-21T01:09:24;2.55;;;1.92;;
38457;SDS011;24239;48.058;10.486;2022-08-21T01:11:50;2.00;;;1.80;;
38457;SDS011;24239;48.058;10.486;2022-08-21T01:14:16;2.10;;;1.90;;
38457;SDS011;24239;48.058;10.486;2022-08-21T01:16:48;2.15;;;1.95;;
38457;SDS011;24239;48.058;10.486;2022-08-21T01:19:16;4.30;;;1.80;;
38457;SDS011;24239;48.058;10.486;2022-08-21T01:21:45;2.08;;;1.88;;
38457;SDS011;24239;48.058;10.486;2022-08-21T01:24:11;2.15;;;1.95;;
38457;SDS011;24239;48.058;10.486;2022-08-21T01:26:38;3.22;;;1.83;;
38457;SDS011;24239;48.058;10.486;2022-08-21T01:29:07;2.08;;;1.88;;
38457;SDS011;24239;48.058;10.486;2022-08-21T01:31:37;2.40;;;2.20;;
38457;SDS011;24239;48.058;10.486;2022-08-21T01:34:03;2.40;;;2.10;;
38457;SDS011;24239;48.058;10.486;2022-08-21T01:36:30;2.30;;;2.00;;
38457;SDS011;24239;48.058;10.486;2022-08-21T01:38:56;2.40;;;2.20;;
38457;SDS011;24239;48.058;10.486;2022-08-21T01:41:22;2.15;;;1.88;;
38457;SDS011;24239;48.058;10.486;2022-08-21T01:43:48;2.35;;;2.15;;
38457;SDS011;24239;48.058;10.486;2022-08-21T01:46:14;2.45;;;2.25;;
38457;SDS011;24239;48.058;10.486;2022-08-21T01:48:40;2.38;;;2.17;;
38457;SDS011;24239;48.058;10.486;2022-08-21T01:51:06;2.22;;;2.03;;
38457;SDS011;24239;48.058;10.486;2022-08-21T01:53:33;2.40;;;2.20;;
38457;SDS011;24239;48.058;10.486;2022-08-21T01:56:01;5.30;;;2.00;;
38457;SDS011;24239;48.058;10.486;2022-08-21T01:58:36;2.25;;;1.90;;
38457;SDS011;24239;48.058;10.486;2022-08-21T02:01:02;3.67;;;2.42;;
38457;SDS011;24239;48.058;10.486;2022-08-21T02:03:29;2.78;;;1.80;;
38457;SDS011;24239;48.058;10.486;2022-08-21T02:05:55;2.30;;;2.05;;
38457;SDS011;24239;48.058;10.486;2022-08-21T02:08:21;2.60;;;2.20;;
38457;SDS011;24239;48.058;10.486;2022-08-21T02:10:51;4.35;;;2.45;;
38457;SDS011;24239;48.058;10.486;2022-08-21T02:13:26;7.53;;;2.08;;
38457;SDS011;24239;48.058;10.486;2022-08-21T02:15:51;2.92;;;2.00;;
38457;SDS011;24239;48.058;10.486;2022-08-21T02:18:17;3.03;;;1.95;;
38457;SDS011;24239;48.058;10.486;2022-08-21T02:20:45;2.53;;;2.33;;
38457;SDS011;24239;48.058;10.486;2022-08-21T02:23:13;2.40;;;2.20;;
38457;SDS011;24239;48.058;10.486;2022-08-21T02:25:42;3.40;;;1.92;;
38457;SDS011;24239;48.058;10.486;2022-08-21T02:28:09;2.72;;;2.35;;
38457;SDS011;24239;48.058;10.486;2022-08-21T02:30:40;3.00;;;2.33;;
38457;SDS011;24239;48.058;10.486;2022-08-21T02:33:09;2.38;;;2.08;;
38457;SDS011;24239;48.058;10.486;2022-08-21T02:35:38;4.63;;;2.55;;
38457;SDS011;24239;48.058;10.486;2022-08-21T02:38:07;2.95;;;2.33;;
38457;SDS011;24239;48.058;10.486;2022-08-21T02:40:35;2.80;;;2.58;;
38457;SDS011;24239;48.058;10.486;2022-08-21T02:43:04;2.28;;;2.08;;
38457;SDS011;24239;48.058;10.486;2022-08-21T02:45:32;4.60;;;2.88;;
38457;SDS011;24239;48.058;10.486;2022-08-21T02:48:00;3.45;;;2.88;;
38457;SDS011;24239;48.058;10.486;2022-08-21T02:50:33;2.97;;;2.67;;
38457;SDS011;24239;48.058;10.486;2022-08-21T02:53:05;4.25;;;2.90;;
38457;SDS011;24239;48.058;10.486;2022-08-21T02:55:32;5.53;;;3.00;;
38457;SDS011;24239;48.058;10.486;2022-08-21T02:57:59;4.10;;;2.80;;
38457;SDS011;24239;48.058;10.486;2022-08-21T03:00:27;3.47;;;2.97;;
38457;SDS011;24239;48.058;10.486;2022-08-21T03:02:54;3.72;;;2.63;;
38457;SDS011;24239;48.058;10.486;2022-08-21T03:05:21;5.38;;;2.85;;
38457;SDS011;24239;48.058;10.486;2022-08-21T03:07:48;2.95;;;2.65;;
38457;SDS011;24239;48.058;10.486;2022-08-21T03:10:14;5.70;;;3.00;;
38457;SDS011;24239;48.058;10.486;2022-08-21T03:12:43;3.30;;;3.00;;
38457;SDS011;24239;48.058;10.486;2022-08-21T03:15:15;4.28;;;3.25;;
38457;SDS011;24239;48.058;10.486;2022-08-21T03:17:43;3.40;;;2.97;;
38457;SDS011;24239;48.058;10.486;2022-08-21T03:20:09;7.50;;;3.75;;
38457;SDS011;24239;48.058;10.486;2022-08-21T03:22:36;5.00;;;3.55;;
38457;SDS011;24239;48.058;10.486;2022-08-21T03:25:02;5.90;;;3.53;;
38457;SDS011;24239;48.058;10.486;2022-08-21T03:27:29;5.57;;;3.90;;
38457;SDS011;24239;48.058;10.486;2022-08-21T03:29:55;5.53;;;3.97;;
38457;SDS011;24239;48.058;10.486;2022-08-21T03:32:22;4.63;;;3.55;;
38457;SDS011;24239;48.058;10.486;2022-08-21T03:34:48;4.28;;;3.47;;
38457;SDS011;24239;48.058;10.486;2022-08-21T03:37:16;7.00;;;3.47;;
38457;SDS011;24239;48.058;10.486;2022-08-21T03:39:42;4.72;;;3.33;;
38457;SDS011;24239;48.058;10.486;2022-08-21T03:42:09;4.70;;;3.35;;
38457;SDS011;24239;48.058;10.486;2022-08-21T03:44:36;4.20;;;3.53;;
38457;SDS011;24239;48.058;10.486;2022-08-21T03:47:02;5.38;;;3.53;;
38457;SDS011;24239;48.058;10.486;2022-08-21T03:49:28;5.82;;;3.50;;
38457;SDS011;24239;48.058;10.486;2022-08-21T03:51:54;5.78;;;3.90;;
38457;SDS011;24239;48.058;10.486;2022-08-21T03:54:20;5.78;;;3.45;;
38457;SDS011;24239;48.058;10.486;2022-08-21T03:56:46;5.32;;;4.03;;
38457;SDS011;24239;48.058;10.486;2022-08-21T03:59:12;6.20;;;3.28;;
38457;SDS011;24239;48.058;10.486;2022-08-21T04:01:38;4.45;;;3.55;;
38457;SDS011;24239;48.058;10.486;2022-08-21T04:04:04;3.63;;;3.13;;
38457;SDS011;24239;48.058;10.486;2022-08-21T04:06:30;4.13;;;3.53;;
38457;SDS011;24239;48.058;10.486;2022-08-21T04:08:56;5.80;;;3.05;;
38457;SDS011;24239;48.058;10.486;2022-08-21T04:11:22;3.85;;;3.35;;
38457;SDS011;24239;48.058;10.486;2022-08-21T04:13:47;4.13;;;2.85;;
38457;SDS011;24239;48.058;10.486;2022-08-21T04:16:13;3.63;;;3.28;;
38457;SDS011;24239;48.058;10.486;2022-08-21T04:18:39;4.63;;;3.90;;
38457;SDS011;24239;48.058;10.486;2022-08-21T04:21:05;4.00;;;3.60;;
38457;SDS011;24239;48.058;10.486;2022-08-21T04:23:32;4.85;;;3.65;;
38457;SDS011;24239;48.058;10.486;2022-08-21T04:25:58;5.05;;;3.40;;
38457;SDS011;24239;48.058;10.486;2022-08-21T04:28:24;3.97;;;3.58;;
38457;SDS011;24239;48.058;10.486;2022-08-21T04:30:52;3.72;;;3.22;;
38457;SDS011;24239;48.058;10.486;2022-08-21T04:33:19;5.18;;;3.65;;
38457;SDS011;24239;48.058;10.486;2022-08-21T04:35:45;6.55;;;3.60;;
38457;SDS011;24239;48.058;10.486;2022-08-21T04:38:12;4.88;;;4.10;;
38457;SDS011;24239;48.058;10.486;2022-08-21T04:40:38;5.45;;;3.42;;
38457;SDS011;24239;48.058;10.486;2022-08-21T04:43:04;5.00;;;3.53;;
38457;SDS011;24239;48.058;10.486;2022-08-21T04:45:43;6.40;;;3.95;;
38457;SDS011;24239;48.058;10.486;2022-08-21T04:48:13;3.97;;;3.50;;
38457;SDS011;24239;48.058;10.486;2022-08-21T04:53:17;3.88;;;3.20;;
38457;SDS011;24239;48.058;10.486;2022-08-21T04:55:45;3.55;;;3.25;;
38457;SDS011;24239;48.058;10.486;2022-08-21T04:58:13;4.43;;;3.33;;
38457;SDS011;24239;48.058;10.486;2022-08-21T05:00:42;5.95;;;3.90;;
38457;SDS011;24239;48.058;10.486;2022-08-21T05:03:09;4.68;;;3.10;;
38457;SDS011;24239;48.058;10.486;2022-08-21T05:05:37;3.63;;;3.33;;
38457;SDS011;24239;48.058;10.486;2022-08-21T05:08:04;4.00;;;3.47;;
38457;SDS011;24239;48.058;10.486;2022-08-21T05:10:39;5.25;;;3.38;;
38457;SDS011;24239;48.058;10.486;2022-08-21T05:13:06;5.28;;;3.83;;
38457;SDS011;24239;48.058;10.486;2022-08-21T05:15:32;5.72;;;4.00;;
38457;SDS011;24239;48.058;10.486;2022-08-21T05:17:58;4.15;;;3.60;;
38457;SDS011;24239;48.058;10.486;2022-08-21T05:20:23;4.18;;;3.50;;
38457;SDS011;24239;48.058;10.486;2022-08-21T05:22:49;4.38;;;3.47;;
38457;SDS011;24239;48.058;10.486;2022-08-21T05:25:15;4.88;;;3.92;;
38457;SDS011;24239;48.058;10.486;2022-08-21T05:27:41;3.95;;;3.50;;
38457;SDS011;24239;48.058;10.486;2022-08-21T05:30:07;3.90;;;3.47;;
38457;SDS011;24239;48.058;10.486;2022-08-21T05:32:35;3.38;;;3.08;;
38457;SDS011;24239;48.058;10.486;2022-08-21T05:35:10;2.92;;;2.72;;
38457;SDS011;24239;48.058;10.486;2022-08-21T05:37:36;3.47;;;3.17;;
38457;SDS011;24239;48.058;10.486;2022-08-21T05:40:02;3.65;;;2.80;;
38457;SDS011;24239;48.058;10.486;2022-08-21T05:42:29;3.83;;;2.78;;
38457;SDS011;24239;48.058;10.486;2022-08-21T05:44:55;2.33;;;2.13;;
38457;SDS011;24239;48.058;10.486;2022-08-21T05:47:21;2.58;;;2.20;;
38457;SDS011;24239;48.058;10.486;2022-08-21T05:49:47;1.92;;;1.73;;
38457;SDS011;24239;48.058;10.486;2022-08-21T05:52:17;1.77;;;1.60;;
38457;SDS011;24239;48.058;10.486;2022-08-21T05:54:47;1.80;;;1.70;;
38457;SDS011;24239;48.058;10.486;2022-08-21T05:57:13;1.75;;;1.65;;
38457;SDS011;24239;48.058;10.486;2022-08-21T05:59:39;1.73;;;1.63;;
38457;SDS011;24239;48.058;10.486;2022-08-21T06:02:05;2.88;;;1.80;;
38457;SDS011;24239;48.058;10.486;2022-08-21T06:04:36;1.90;;;1.75;;
38457;SDS011;24239;48.058;10.486;2022-08-21T06:07:03;1.55;;;1.45;;
38457;SDS011;24239;48.058;10.486;2022-08-21T06:09:29;3.85;;;1.65;;
38457;SDS011;24239;48.058;10.486;2022-08-21T06:11:55;1.77;;;1.67;;
38457;SDS011;24239;48.058;10.486;2022-08-21T06:14:20;2.83;;;1.95;;
38457;SDS011;24239;48.058;10.486;2022-08-21T06:16:46;3.78;;;1.67;;
38457;SDS011;24239;48.058;10.486;2022-08-21T06:19:12;1.90;;;1.80;;
38457;SDS011;24239;48.058;10.486;2022-08-21T06:21:38;3.67;;;1.88;;
38457;SDS011;24239;48.058;10.486;2022-08-21T06:24:04;2.50;;;1.83;;
38457;SDS011;24239;48.058;10.486;2022-08-21T06:26:32;2.63;;;1.83;;
38457;SDS011;24239;48.058;10.486;2022-08-21T06:28:58;2.20;;;2.10;;
38457;SDS011;24239;48.058;10.486;2022-08-21T06:31:24;3.35;;;2.17;;
38457;SDS011;24239;48.058;10.486;2022-08-21T06:33:51;2.10;;;1.75;;
38457;SDS011;24239;48.058;10.486;2022-08-21T06:36:18;4.18;;;2.28;;
38457;SDS011;24239;48.058;10.486;2022-08-21T06:38:48;3.05;;;2.00;;
38457;SDS011;24239;48.058;10.486;2022-08-21T06:41:14;4.00;;;2.08;;
38457;SDS011;24239;48.058;10.486;2022-08-21T06:43:40;2.15;;;1.95;;
38457;SDS011;24239;48.058;10.486;2022-08-21T06:46:09;2.67;;;1.92;;
38457;SDS011;24239;48.058;10.486;2022-08-21T06:48:34;2.42;;;2.08;;
38457;SDS011;24239;48.058;10.486;2022-08-21T06:51:00;3.08;;;2.10;;
38457;SDS011;24239;48.058;10.486;2022-08-21T06:53:27;4.30;;;2.10;;
38457;SDS011;24239;48.058;10.486;2022-08-21T06:55:53;2.40;;;2.20;;
38457;SDS011;24239;48.058;10.486;2022-08-21T06:58:18;2.67;;;2.00;;
38457;SDS011;24239;48.058;10.486;2022-08-21T07:00:46;2.30;;;2.10;;
38457;SDS011;24239;48.058;10.486;2022-08-21T07:03:17;3.42;;;2.13;;
38457;SDS011;24239;48.058;10.486;2022-08-21T07:05:46;2.53;;;2.00;;
38457;SDS011;24239;48.058;10.486;2022-08-21T07:08:12;3.47;;;1.98;;
38457;SDS011;24239;48.058;10.486;2022-08-21T07:10:38;2.85;;;2.00;;
38457;SDS011;24239;48.058;10.486;2022-08-21T07:13:06;4.40;;;2.42;;
38457;SDS011;24239;48.058;10.486;2022-08-21T07:15:32;2.15;;;1.92;;
38457;SDS011;24239;48.058;10.486;2022-08-21T07:17:58;4.03;;;2.00;;
38457;SDS011;24239;48.058;10.486;2022-08-21T07:20:25;2.53;;;2.17;;
38457;SDS011;24239;48.058;10.486;2022-08-21T07:22:52;3.40;;;2.25;;
38457;SDS011;24239;48.058;10.486;2022-08-21T07:25:18;4.93;;;2.42;;
38457;SDS011;24239;48.058;10.486;2022-08-21T07:27:44;3.15;;;2.10;;
38457;SDS011;24239;48.058;10.486;2022-08-21T07:30:10;5.40;;;2.40;;
38457;SDS011;24239;48.058;10.486;2022-08-21T07:32:36;8.20;;;2.45;;
38457;SDS011;24239;48.058;10.486;2022-08-21T07:35:02;4.70;;;2.50;;
38457;SDS011;24239;48.058;10.486;2022-08-21T07:37:28;2.63;;;2.33;;
38457;SDS011;24239;48.058;10.486;2022-08-21T07:39:54;3.40;;;2.35;;
38457;SDS011;24239;48.058;10.486;2022-08-21T07:42:20;5.93;;;2.53;;
38457;SDS011;24239;48.058;10.486;2022-08-21T07:44:45;3.05;;;2.60;;
38457;SDS011;24239;48.058;10.486;2022-08-21T07:47:11;4.05;;;2.75;;
38457;SDS011;24239;48.058;10.486;2022-08-21T07:49:37;6.72;;;2.80;;
38457;SDS011;24239;48.058;10.486;2022-08-21T07:52:03;6.00;;;2.78;;
38457;SDS011;24239;48.058;10.486;2022-08-21T07:54:29;3.13;;;2.55;;
38457;SDS011;24239;48.058;10.486;2022-08-21T07:56:54;6.80;;;2.97;;
38457;SDS011;24239;48.058;10.486;2022-08-21T07:59:20;4.95;;;2.58;;
38457;SDS011;24239;48.058;10.486;2022-08-21T08:01:49;5.00;;;2.80;;
38457;SDS011;24239;48.058;10.486;2022-08-21T08:04:15;3.15;;;2.50;;
38457;SDS011;24239;48.058;10.486;2022-08-21T08:06:41;5.38;;;2.80;;
38457;SDS011;24239;48.058;10.486;2022-08-21T08:09:07;6.70;;;3.22;;
38457;SDS011;24239;48.058;10.486;2022-08-21T08:11:33;8.48;;;2.90;;
38457;SDS011;24239;48.058;10.486;2022-08-21T08:13:58;5.38;;;3.85;;
38457;SDS011;24239;48.058;10.486;2022-08-21T08:16:25;4.72;;;2.42;;
38457;SDS011;24239;48.058;10.486;2022-08-21T08:18:51;6.95;;;3.00;;
38457;SDS011;24239;48.058;10.486;2022-08-21T08:21:17;4.45;;;2.97;;
38457;SDS011;24239;48.058;10.486;2022-08-21T08:23:45;4.85;;;3.03;;
38457;SDS011;24239;48.058;10.486;2022-08-21T08:26:12;5.13;;;3.08;;
38457;SDS011;24239;48.058;10.486;2022-08-21T08:28:37;5.90;;;3.55;;
38457;SDS011;24239;48.058;10.486;2022-08-21T08:31:03;3.88;;;3.25;;
38457;SDS011;24239;48.058;10.486;2022-08-21T08:33:29;7.68;;;3.85;;
38457;SDS011;24239;48.058;10.486;2022-08-21T08:35:55;4.65;;;3.42;;
38457;SDS011;24239;48.058;10.486;2022-08-21T08:38:22;3.90;;;3.25;;
38457;SDS011;24239;48.058;10.486;2022-08-21T08:40:52;5.40;;;3.20;;
38457;SDS011;24239;48.058;10.486;2022-08-21T08:43:19;4.90;;;3.30;;
38457;SDS011;24239;48.058;10.486;2022-08-21T08:45:47;5.60;;;3.92;;
38457;SDS011;24239;48.058;10.486;2022-08-21T08:48:19;5.28;;;3.95;;
38457;SDS011;24239;48.058;10.486;2022-08-21T08:50:55;5.13;;;3.38;;
38457;SDS011;24239;48.058;10.486;2022-08-21T08:55:54;5.85;;;3.88;;
38457;SDS011;24239;48.058;10.486;2022-08-21T09:00:52;6.63;;;3.58;;
38457;SDS011;24239;48.058;10.486;2022-08-21T09:03:23;7.97;;;2.92;;
38457;SDS011;24239;48.058;10.486;2022-08-21T09:11:56;7.22;;;3.00;;
38457;SDS011;24239;48.058;10.486;2022-08-21T09:25:17;5.10;;;3.88;;
38457;SDS011;24239;48.058;10.486;2022-08-21T09:27:47;4.88;;;3.38;;
38457;SDS011;24239;48.058;10.486;2022-08-21T09:30:15;6.30;;;3.10;;
38457;SDS011;24239;48.058;10.486;2022-08-21T09:32:42;5.43;;;3.13;;
38457;SDS011;24239;48.058;10.486;2022-08-21T09:40:38;4.72;;;2.78;;
38457;SDS011;24239;48.058;10.486;2022-08-21T09:45:36;5.85;;;3.22;;
38457;SDS011;24239;48.058;10.486;2022-08-21T09:48:08;5.47;;;3.42;;
38457;SDS011;24239;48.058;10.486;2022-08-21T09:50:37;6.05;;;3.00;;
38457;SDS011;24239;48.058;10.486;2022-08-21T09:53:04;5.00;;;3.47;;
38457;SDS011;24239;48.058;10.486;2022-08-21T09:55:46;5.50;;;2.92;;
38457;SDS011;24239;48.058;10.486;2022-08-21T09:58:32;7.20;;;3.10;;
38457;SDS011;24239;48.058;10.486;2022-08-21T10:01:00;4.20;;;3.00;;
38457;SDS011;24239;48.058;10.486;2022-08-21T10:03:28;6.43;;;3.17;;
38457;SDS011;24239;48.058;10.486;2022-08-21T10:05:56;8.18;;;3.70;;
38457;SDS011;24239;48.058;10.486;2022-08-21T10:08:30;7.97;;;3.35;;
38457;SDS011;24239;48.058;10.486;2022-08-21T10:11:01;4.97;;;3.15;;
38457;SDS011;24239;48.058;10.486;2022-08-21T10:16:14;5.53;;;2.90;;
38457;SDS011;24239;48.058;10.486;2022-08-21T10:21:35;5.35;;;3.13;;
38457;SDS011;24239;48.058;10.486;2022-08-21T10:24:23;3.88;;;2.80;;
38457;SDS011;24239;48.058;10.486;2022-08-21T10:34:53;6.78;;;3.88;;
38457;SDS011;24239;48.058;10.486;2022-08-21T10:45:25;6.90;;;3.50;;
38457;SDS011;24239;48.058;10.486;2022-08-21T10:48:02;5.90;;;3.45;;
38457;SDS011;24239;48.058;10.486;2022-08-21T10:50:32;4.40;;;3.05;;
38457;SDS011;24239;48.058;10.486;2022-08-21T10:56:30;6.45;;;3.22;;
38457;SDS011;24239;48.058;10.486;2022-08-21T11:01:29;5.05;;;3.08;;
38457;SDS011;24239;48.058;10.486;2022-08-21T11:07:00;4.47;;;3.25;;
38457;SDS011;24239;48.058;10.486;2022-08-21T11:09:43;5.35;;;3.20;;
38457;SDS011;24239;48.058;10.486;2022-08-21T11:12:35;8.27;;;3.05;;
38457;SDS011;24239;48.058;10.486;2022-08-21T11:20:12;4.70;;;3.00;;
38457;SDS011;24239;48.058;10.486;2022-08-21T11:22:48;5.65;;;2.88;;
38457;SDS011;24239;48.058;10.486;2022-08-21T11:25:35;9.32;;;3.78;;
38457;SDS011;24239;48.058;10.486;2022-08-21T11:30:57;3.70;;;2.92;;
38457;SDS011;24239;48.058;10.486;2022-08-21T11:37:20;6.50;;;3.38;;
38457;SDS011;24239;48.058;10.486;2022-08-21T11:48:12;4.50;;;3.00;;
38457;SDS011;24239;48.058;10.486;2022-08-21T11:50:49;7.55;;;3.10;;
38457;SDS011;24239;48.058;10.486;2022-08-21T11:53:28;3.88;;;2.95;;
38457;SDS011;24239;48.058;10.486;2022-08-21T11:56:17;4.93;;;2.92;;
38457;SDS011;24239;48.058;10.486;2022-08-21T11:58:48;4.53;;;2.53;;
38457;SDS011;24239;48.058;10.486;2022-08-21T12:01:25;4.90;;;2.75;;
38457;SDS011;24239;48.058;10.486;2022-08-21T12:04:07;7.30;;;3.40;;
38457;SDS011;24239;48.058;10.486;2022-08-21T12:06:42;3.30;;;2.70;;
38457;SDS011;24239;48.058;10.486;2022-08-21T12:09:28;3.88;;;3.13;;
38457;SDS011;24239;48.058;10.486;2022-08-21T12:14:48;3.83;;;2.95;;
38457;SDS011;24239;48.058;10.486;2022-08-21T12:17:20;5.35;;;3.10;;
38457;SDS011;24239;48.058;10.486;2022-08-21T12:19:59;5.15;;;3.05;;
38457;SDS011;24239;48.058;10.486;2022-08-21T12:22:39;5.00;;;3.13;;
38457;SDS011;24239;48.058;10.486;2022-08-21T12:25:06;5.75;;;3.15;;
38457;SDS011;24239;48.058;10.486;2022-08-21T12:27:45;3.85;;;3.08;;
38457;SDS011;24239;48.058;10.486;2022-08-21T12:43:25;3.78;;;2.70;;
38457;SDS011;24239;48.058;10.486;2022-08-21T12:46:00;4.72;;;2.85;;
38457;SDS011;24239;48.058;10.486;2022-08-21T12:48:31;3.63;;;2.90;;
38457;SDS011;24239;48.058;10.486;2022-08-21T12:51:06;5.47;;;2.72;;
38457;SDS011;24239;48.058;10.486;2022-08-21T12:53:44;3.42;;;2.70;;
38457;SDS011;24239;48.058;10.486;2022-08-21T12:56:12;4.53;;;3.00;;
38457;SDS011;24239;48.058;10.486;2022-08-21T12:58:43;4.35;;;2.95;;
38457;SDS011;24239;48.058;10.486;2022-08-21T13:01:23;4.90;;;3.25;;
38457;SDS011;24239;48.058;10.486;2022-08-21T13:04:01;8.88;;;3.05;;
38457;SDS011;24239;48.058;10.486;2022-08-21T13:06:36;3.88;;;2.80;;
38457;SDS011;24239;48.058;10.486;2022-08-21T13:09:08;5.03;;;2.80;;
38457;SDS011;24239;48.058;10.486;2022-08-21T13:11:36;5.93;;;2.83;;
38457;SDS011;24239;48.058;10.486;2022-08-21T13:14:03;6.75;;;3.17;;
38457;SDS011;24239;48.058;10.486;2022-08-21T13:16:29;4.03;;;2.67;;
38457;SDS011;24239;48.058;10.486;2022-08-21T13:21:27;5.95;;;2.40;;
38457;SDS011;24239;48.058;10.486;2022-08-21T13:26:43;6.28;;;3.25;;
38457;SDS011;24239;48.058;10.486;2022-08-21T13:29:12;3.67;;;2.90;;
38457;SDS011;24239;48.058;10.486;2022-08-21T13:31:41;4.35;;;3.00;;
38457;SDS011;24239;48.058;10.486;2022-08-21T13:36:39;8.93;;;3.15;;
38457;SDS011;24239;48.058;10.486;2022-08-21T13:39:07;7.68;;;2.78;;
38457;SDS011;24239;48.058;10.486;2022-08-21T13:41:35;5.00;;;3.60;;
38457;SDS011;24239;48.058;10.486;2022-08-21T13:46:39;3.72;;;2.80;;
38457;SDS011;24239;48.058;10.486;2022-08-21T13:49:06;5.10;;;3.05;;
38457;SDS011;24239;48.058;10.486;2022-08-21T13:51:33;3.95;;;3.40;;
38457;SDS011;24239;48.058;10.486;2022-08-21T13:54:00;3.83;;;2.75;;
38457;SDS011;24239;48.058;10.486;2022-08-21T13:58:55;6.15;;;2.97;;
38457;SDS011;24239;48.058;10.486;2022-08-21T14:01:25;3.03;;;2.63;;
38457;SDS011;24239;48.058;10.486;2022-08-21T14:04:07;3.95;;;2.95;;
38457;SDS011;24239;48.058;10.486;2022-08-21T14:06:37;5.45;;;3.10;;
38457;SDS011;24239;48.058;10.486;2022-08-21T14:11:37;5.07;;;2.58;;
38457;SDS011;24239;48.058;10.486;2022-08-21T14:14:11;5.10;;;2.92;;
38457;SDS011;24239;48.058;10.486;2022-08-21T14:17:04;3.97;;;2.90;;
38457;SDS011;24239;48.058;10.486;2022-08-21T14:19:43;4.38;;;2.80;;
38457;SDS011;24239;48.058;10.486;2022-08-21T14:25:13;5.40;;;2.85;;
38457;SDS011;24239;48.058;10.486;2022-08-21T14:28:15;4.67;;;2.80;;
38457;SDS011;24239;48.058;10.486;2022-08-21T14:30:43;4.60;;;2.88;;
38457;SDS011;24239;48.058;10.486;2022-08-21T14:33:15;4.07;;;2.63;;
38457;SDS011;24239;48.058;10.486;2022-08-21T14:35:47;4.22;;;2.53;;
38457;SDS011;24239;48.058;10.486;2022-08-21T14:38:16;4.72;;;2.42;;
38457;SDS011;24239;48.058;10.486;2022-08-21T14:40:47;5.00;;;3.00;;
38457;SDS011;24239;48.058;10.486;2022-08-21T14:43:15;3.25;;;2.60;;
38457;SDS011;24239;48.058;10.486;2022-08-21T14:45:41;3.90;;;2.90;;
38457;SDS011;24239;48.058;10.486;2022-08-21T14:48:08;6.53;;;3.10;;
38457;SDS011;24239;48.058;10.486;2022-08-21T14:50:34;5.30;;;2.67;;
38457;SDS011;24239;48.058;10.486;2022-08-21T14:53:00;5.78;;;3.05;;
38457;SDS011;24239;48.058;10.486;2022-08-21T14:55:26;4.20;;;2.67;;
38457;SDS011;24239;48.058;10.486;2022-08-21T14:57:53;4.63;;;2.70;;
38457;SDS011;24239;48.058;10.486;2022-08-21T15:00:21;5.35;;;2.42;;
38457;SDS011;24239;48.058;10.486;2022-08-21T15:02:49;4.70;;;2.58;;
38457;SDS011;24239;48.058;10.486;2022-08-21T15:05:16;5.35;;;2.67;;
38457;SDS011;24239;48.058;10.486;2022-08-21T15:07:42;3.28;;;2.42;;
38457;SDS011;24239;48.058;10.486;2022-08-21T15:10:09;4.25;;;2.40;;
38457;SDS011;24239;48.058;10.486;2022-08-21T15:12:35;3.60;;;2.90;;
38457;SDS011;24239;48.058;10.486;2022-08-21T15:15:02;3.58;;;2.40;;
38457;SDS011;24239;48.058;10.486;2022-08-21T15:17:33;8.27;;;2.50;;
38457;SDS011;24239;48.058;10.486;2022-08-21T15:19:59;6.60;;;2.72;;
38457;SDS011;24239;48.058;10.486;2022-08-21T15:22:25;4.78;;;2.60;;
38457;SDS011;24239;48.058;10.486;2022-08-21T15:25:01;4.65;;;2.60;;
38457;SDS011;24239;48.058;10.486;2022-08-21T15:27:28;2.88;;;2.38;;
38457;SDS011;24239;48.058;10.486;2022-08-21T15:29:54;3.55;;;2.83;;
38457;SDS011;24239;48.058;10.486;2022-08-21T15:32:22;4.25;;;2.55;;
38457;SDS011;24239;48.058;10.486;2022-08-21T15:34:54;4.22;;;2.60;;
38457;SDS011;24239;48.058;10.486;2022-08-21T15:37:21;5.75;;;2.63;;
38457;SDS011;24239;48.058;10.486;2022-08-21T15:39:48;5.25;;;2.30;;
38457;SDS011;24239;48.058;10.486;2022-08-21T15:42:18;4.30;;;3.15;;
38457;SDS011;24239;48.058;10.486;2022-08-21T15:44:44;3.03;;;2.33;;
38457;SDS011;24239;48.058;10.486;2022-08-21T15:47:14;4.85;;;2.58;;
38457;SDS011;24239;48.058;10.486;2022-08-21T15:49:46;3.03;;;2.60;;
38457;SDS011;24239;48.058;10.486;2022-08-21T15:52:13;3.83;;;2.50;;
38457;SDS011;24239;48.058;10.486;2022-08-21T15:54:40;4.65;;;2.80;;
38457;SDS011;24239;48.058;10.486;2022-08-21T15:57:08;4.63;;;2.28;;
38457;SDS011;24239;48.058;10.486;2022-08-21T15:59:44;4.25;;;2.20;;
38457;SDS011;24239;48.058;10.486;2022-08-21T16:02:47;6.50;;;2.50;;
38457;SDS011;24239;48.058;10.486;2022-08-21T16:05:08;3.47;;;2.35;;
38457;SDS011;24239;48.058;10.486;2022-08-21T16:07:37;6.10;;;2.42;;
38457;SDS011;24239;48.058;10.486;2022-08-21T16:10:04;2.92;;;2.30;;
38457;SDS011;24239;48.058;10.486;2022-08-21T16:12:34;3.40;;;2.60;;
38457;SDS011;24239;48.058;10.486;2022-08-21T16:15:04;3.50;;;2.38;;
38457;SDS011;24239;48.058;10.486;2022-08-21T16:17:34;3.15;;;2.30;;
38457;SDS011;24239;48.058;10.486;2022-08-21T16:20:03;4.28;;;2.10;;
38457;SDS011;24239;48.058;10.486;2022-08-21T16:22:32;2.47;;;2.10;;
38457;SDS011;24239;48.058;10.486;2022-08-21T16:24:57;3.05;;;2.00;;
38457;SDS011;24239;48.058;10.486;2022-08-21T16:27:24;2.75;;;2.10;;
38457;SDS011;24239;48.058;10.486;2022-08-21T16:29:52;3.60;;;2.45;;
38457;SDS011;24239;48.058;10.486;2022-08-21T16:32:19;3.72;;;1.98;;
38457;SDS011;24239;48.058;10.486;2022-08-21T16:34:47;4.50;;;2.40;;
38457;SDS011;24239;48.058;10.486;2022-08-21T16:37:15;3.03;;;2.17;;
38457;SDS011;24239;48.058;10.486;2022-08-21T16:39:42;4.10;;;2.13;;